sensor_id;sensor_type;location;lat;lon;timestamp;temperature;humidity
50556;DHT22;36508;52.512;13.450;2023-05-17T00:01:06;10.20;99.90
50556;DHT22;36508;52.512;13.450;2023-05-17T00:03:31;10.10;99.90
50556;DHT22;36508;52.512;13.450;2023-05-17T00:05:57;10.10;99.90
50556;DHT22;36508;52.512;13.450;2023-05-17T00:08:23;10.00;99.90
50556;DHT22;36508;52.512;13.450;2023-05-17T00:10:48;10.00;99.90
50556;DHT22;36508;52.512;13.450;2023-05-17T00:13:14;10.00;99.90
50556;DHT22;36508;52.512;13.450;2023-05-17T00:15:39;9.90;99.90
50556;DHT22;36508;52.512;13.450;2023-05-17T00:18:05;9.80;99.90
50556;DHT22;36508;52.512;13.450;2023-05-17T00:20:30;9.80;99.90
50556;DHT22;36508;52.512;13.450;2023-05-17T00:22:56;9.60;99.90
50556;DHT22;36508;52.512;13.450;2023-05-17T00:25:22;9.70;99.90
50556;DHT22;36508;52.512;13.450;2023-05-17T00:27:47;9.70;99.90
50556;DHT22;36508;52.512;13.450;2023-05-17T00:30:13;9.70;99.90
50556;DHT22;36508;52.512;13.450;2023-05-17T00:32:39;9.70;99.90
50556;DHT22;36508;52.512;13.450;2023-05-17T00:35:04;9.60;99.90
50556;DHT22;36508;52.512;13.450;2023-05-17T00:37:30;9.60;99.90
50556;DHT22;36508;52.512;13.450;2023-05-17T00:39:56;9.60;99.90
50556;DHT22;36508;52.512;13.450;2023-05-17T00:42:21;9.50;99.90
50556;DHT22;36508;52.512;13.450;2023-05-17T00:44:47;9.50;99.90
50556;DHT22;36508;52.512;13.450;2023-05-17T00:47:12;9.50;99.90
50556;DHT22;36508;52.512;13.450;2023-05-17T00:49:38;9.50;99.90
50556;DHT22;36508;52.512;13.450;2023-05-17T00:52:04;9.40;99.90
50556;DHT22;36508;52.512;13.450;2023-05-17T00:54:30;9.40;99.90
50556;DHT22;36508;52.512;13.450;2023-05-17T00:56:56;9.40;99.90
50556;DHT22;36508;52.512;13.450;2023-05-17T00:59:25;9.40;99.90
50556;DHT22;36508;52.512;13.450;2023-05-17T01:01:51;9.40;99.90
50556;DHT22;36508;52.512;13.450;2023-05-17T01:04:17;9.30;99.90
50556;DHT22;36508;52.512;13.450;2023-05-17T01:06:43;9.30;99.90
50556;DHT22;36508;52.512;13.450;2023-05-17T01:09:09;9.20;99.90
50556;DHT22;36508;52.512;13.450;2023-05-17T01:12:00;9.20;99.90
50556;DHT22;36508;52.512;13.450;2023-05-17T01:17:13;9.10;99.90
50556;DHT22;36508;52.512;13.450;2023-05-17T01:20:17;9.20;99.90
50556;DHT22;36508;52.512;13.450;2023-05-17T01:28:03;9.10;99.90
50556;DHT22;36508;52.512;13.450;2023-05-17T01:30:30;9.10;99.90
50556;DHT22;36508;52.512;13.450;2023-05-17T01:32:57;9.10;99.90
50556;DHT22;36508;52.512;13.450;2023-05-17T01:35:24;9.10;99.90
50556;DHT22;36508;52.512;13.450;2023-05-17T01:37:53;9.10;99.90
50556;DHT22;36508;52.512;13.450;2023-05-17T01:40:19;9.10;99.90
50556;DHT22;36508;52.512;13.450;2023-05-17T01:42:49;9.10;99.90
50556;DHT22;36508;52.512;13.450;2023-05-17T01:45:22;9.00;99.90
50556;DHT22;36508;52.512;13.450;2023-05-17T01:48:02;9.00;99.90
50556;DHT22;36508;52.512;13.450;2023-05-17T01:50:31;9.00;99.90
50556;DHT22;36508;52.512;13.450;2023-05-17T01:53:04;9.00;99.90
50556;DHT22;36508;52.512;13.450;2023-05-17T01:55:40;8.90;99.90
50556;DHT22;36508;52.512;13.450;2023-05-17T01:58:07;8.90;99.90
50556;DHT22;36508;52.512;13.450;2023-05-17T02:00:35;8.90;99.90
50556;DHT22;36508;52.512;13.450;2023-05-17T02:03:03;9.00;99.90
50556;DHT22;36508;52.512;13.450;2023-05-17T02:05:28;8.90;99.90
50556;DHT22;36508;52.512;13.450;2023-05-17T02:07:54;8.90;99.90
50556;DHT22;36508;52.512;13.450;2023-05-17T02:10:19;8.90;99.90
50556;DHT22;36508;52.512;13.450;2023-05-17T02:12:45;8.90;99.90
50556;DHT22;36508;52.512;13.450;2023-05-17T02:15:11;8.90;99.90
50556;DHT22;36508;52.512;13.450;2023-05-17T02:17:38;8.80;99.90
50556;DHT22;36508;52.512;13.450;2023-05-17T02:20:05;8.80;99.90
50556;DHT22;36508;52.512;13.450;2023-05-17T02:22:31;8.80;99.90
50556;DHT22;36508;52.512;13.450;2023-05-17T02:24:57;8.80;99.90
50556;DHT22;36508;52.512;13.450;2023-05-17T02:27:23;8.80;99.90
50556;DHT22;36508;52.512;13.450;2023-05-17T02:29:48;8.80;99.90
50556;DHT22;36508;52.512;13.450;2023-05-17T02:32:14;8.80;99.90
50556;DHT22;36508;52.512;13.450;2023-05-17T02:34:48;8.80;99.90
50556;DHT22;36508;52.512;13.450;2023-05-17T02:37:14;8.80;99.90
50556;DHT22;36508;52.512;13.450;2023-05-17T02:39:40;8.70;99.90
50556;DHT22;36508;52.512;13.450;2023-05-17T02:42:05;8.80;99.90
50556;DHT22;36508;52.512;13.450;2023-05-17T02:44:31;8.80;99.90
50556;DHT22;36508;52.512;13.450;2023-05-17T02:46:56;8.80;99.90
50556;DHT22;36508;52.512;13.450;2023-05-17T02:49:22;8.90;99.90
50556;DHT22;36508;52.512;13.450;2023-05-17T02:51:48;8.90;99.90
50556;DHT22;36508;52.512;13.450;2023-05-17T02:54:13;8.90;99.90
50556;DHT22;36508;52.512;13.450;2023-05-17T02:56:39;8.90;99.90
50556;DHT22;36508;52.512;13.450;2023-05-17T02:59:04;8.90;99.90
50556;DHT22;36508;52.512;13.450;2023-05-17T03:01:30;8.90;99.90
50556;DHT22;36508;52.512;13.450;2023-05-17T03:03:55;8.90;99.90
50556;DHT22;36508;52.512;13.450;2023-05-17T03:06:21;9.00;99.90
50556;DHT22;36508;52.512;13.450;2023-05-17T03:08:47;9.00;99.90
50556;DHT22;36508;52.512;13.450;2023-05-17T03:11:12;9.10;99.90
50556;DHT22;36508;52.512;13.450;2023-05-17T03:13:38;9.10;99.90
50556;DHT22;36508;52.512;13.450;2023-05-17T03:16:04;9.10;99.90
50556;DHT22;36508;52.512;13.450;2023-05-17T03:18:29;9.10;99.90
50556;DHT22;36508;52.512;13.450;2023-05-17T03:20:55;9.10;99.90
50556;DHT22;36508;52.512;13.450;2023-05-17T03:23:21;9.10;99.90
50556;DHT22;36508;52.512;13.450;2023-05-17T03:25:46;9.20;99.90
50556;DHT22;36508;52.512;13.450;2023-05-17T03:28:12;9.30;99.90
50556;DHT22;36508;52.512;13.450;2023-05-17T03:30:37;9.20;99.90
50556;DHT22;36508;52.512;13.450;2023-05-17T03:33:03;9.20;99.90
50556;DHT22;36508;52.512;13.450;2023-05-17T03:35:29;9.20;99.90
50556;DHT22;36508;52.512;13.450;2023-05-17T03:37:54;9.20;99.90
50556;DHT22;36508;52.512;13.450;2023-05-17T03:40:20;9.20;99.90
50556;DHT22;36508;52.512;13.450;2023-05-17T03:42:45;9.10;99.90
50556;DHT22;36508;52.512;13.450;2023-05-17T03:45:11;9.20;99.90
50556;DHT22;36508;52.512;13.450;2023-05-17T03:47:37;9.20;99.90
50556;DHT22;36508;52.512;13.450;2023-05-17T03:50:03;9.20;99.90
50556;DHT22;36508;52.512;13.450;2023-05-17T03:52:29;9.20;99.90
50556;DHT22;36508;52.512;13.450;2023-05-17T03:54:55;9.10;99.90
50556;DHT22;36508;52.512;13.450;2023-05-17T03:57:21;9.20;99.90
50556;DHT22;36508;52.512;13.450;2023-05-17T03:59:46;9.20;99.90
50556;DHT22;36508;52.512;13.450;2023-05-17T04:02:14;9.20;99.90
50556;DHT22;36508;52.512;13.450;2023-05-17T04:04:40;9.20;99.90
50556;DHT22;36508;52.512;13.450;2023-05-17T04:07:06;9.10;99.90
50556;DHT22;36508;52.512;13.450;2023-05-17T04:09:32;9.00;99.90
50556;DHT22;36508;52.512;13.450;2023-05-17T04:11:59;9.10;99.90
50556;DHT22;36508;52.512;13.450;2023-05-17T04:14:25;9.10;99.90
50556;DHT22;36508;52.512;13.450;2023-05-17T04:16:50;9.10;99.90
50556;DHT22;36508;52.512;13.450;2023-05-17T04:19:16;9.10;99.90
50556;DHT22;36508;52.512;13.450;2023-05-17T04:21:42;9.10;99.90
50556;DHT22;36508;52.512;13.450;2023-05-17T04:24:08;9.00;99.90
50556;DHT22;36508;52.512;13.450;2023-05-17T04:26:34;9.10;99.90
50556;DHT22;36508;52.512;13.450;2023-05-17T04:28:59;9.20;99.90
50556;DHT22;36508;52.512;13.450;2023-05-17T04:31:25;9.20;99.90
50556;DHT22;36508;52.512;13.450;2023-05-17T04:33:51;9.20;99.90
50556;DHT22;36508;52.512;13.450;2023-05-17T04:36:16;9.10;99.90
50556;DHT22;36508;52.512;13.450;2023-05-17T04:38:42;9.10;99.90
50556;DHT22;36508;52.512;13.450;2023-05-17T04:41:08;9.20;99.90
50556;DHT22;36508;52.512;13.450;2023-05-17T04:43:34;9.40;99.90
50556;DHT22;36508;52.512;13.450;2023-05-17T04:46:00;9.50;99.90
50556;DHT22;36508;52.512;13.450;2023-05-17T04:48:25;9.30;99.90
50556;DHT22;36508;52.512;13.450;2023-05-17T04:50:54;9.20;99.90
50556;DHT22;36508;52.512;13.450;2023-05-17T04:53:20;9.20;99.90
50556;DHT22;36508;52.512;13.450;2023-05-17T04:55:45;9.20;99.90
50556;DHT22;36508;52.512;13.450;2023-05-17T04:58:12;9.20;99.90
50556;DHT22;36508;52.512;13.450;2023-05-17T05:00:38;9.20;99.90
50556;DHT22;36508;52.512;13.450;2023-05-17T05:03:04;9.20;99.90
50556;DHT22;36508;52.512;13.450;2023-05-17T05:05:30;9.30;99.90
50556;DHT22;36508;52.512;13.450;2023-05-17T05:07:56;9.30;99.90
50556;DHT22;36508;52.512;13.450;2023-05-17T05:10:22;9.20;99.90
50556;DHT22;36508;52.512;13.450;2023-05-17T05:12:48;9.30;99.90
50556;DHT22;36508;52.512;13.450;2023-05-17T05:15:14;9.30;99.90
50556;DHT22;36508;52.512;13.450;2023-05-17T05:17:39;9.40;99.90
50556;DHT22;36508;52.512;13.450;2023-05-17T05:20:08;9.40;99.90
50556;DHT22;36508;52.512;13.450;2023-05-17T05:22:34;9.30;99.90
50556;DHT22;36508;52.512;13.450;2023-05-17T05:25:00;9.30;99.90
50556;DHT22;36508;52.512;13.450;2023-05-17T05:27:25;9.40;99.90
50556;DHT22;36508;52.512;13.450;2023-05-17T05:29:51;9.40;99.90
50556;DHT22;36508;52.512;13.450;2023-05-17T05:32:17;9.40;99.90
50556;DHT22;36508;52.512;13.450;2023-05-17T05:34:43;9.40;99.90
50556;DHT22;36508;52.512;13.450;2023-05-17T05:37:08;9.40;99.90
50556;DHT22;36508;52.512;13.450;2023-05-17T05:39:34;9.40;99.90
50556;DHT22;36508;52.512;13.450;2023-05-17T05:42:00;9.50;99.90
50556;DHT22;36508;52.512;13.450;2023-05-17T05:44:25;9.60;99.90
50556;DHT22;36508;52.512;13.450;2023-05-17T05:46:51;9.70;99.90
50556;DHT22;36508;52.512;13.450;2023-05-17T05:49:17;9.80;99.90
50556;DHT22;36508;52.512;13.450;2023-05-17T05:51:43;9.90;99.90
50556;DHT22;36508;52.512;13.450;2023-05-17T05:54:09;10.10;99.90
50556;DHT22;36508;52.512;13.450;2023-05-17T05:56:34;10.20;99.90
50556;DHT22;36508;52.512;13.450;2023-05-17T05:59:00;10.00;99.90
50556;DHT22;36508;52.512;13.450;2023-05-17T06:01:26;10.00;99.90
50556;DHT22;36508;52.512;13.450;2023-05-17T06:03:53;9.80;99.90
50556;DHT22;36508;52.512;13.450;2023-05-17T06:06:18;9.70;99.90
50556;DHT22;36508;52.512;13.450;2023-05-17T06:08:44;9.80;99.90
50556;DHT22;36508;52.512;13.450;2023-05-17T06:11:12;9.60;99.90
50556;DHT22;36508;52.512;13.450;2023-05-17T06:13:38;9.60;99.90
50556;DHT22;36508;52.512;13.450;2023-05-17T06:16:04;9.50;99.90
50556;DHT22;36508;52.512;13.450;2023-05-17T06:18:30;9.60;99.90
50556;DHT22;36508;52.512;13.450;2023-05-17T06:20:55;9.50;99.90
50556;DHT22;36508;52.512;13.450;2023-05-17T06:23:22;9.50;99.90
50556;DHT22;36508;52.512;13.450;2023-05-17T06:25:47;9.60;99.90
50556;DHT22;36508;52.512;13.450;2023-05-17T06:28:13;9.70;99.90
50556;DHT22;36508;52.512;13.450;2023-05-17T06:30:38;9.70;99.90
50556;DHT22;36508;52.512;13.450;2023-05-17T06:33:04;9.60;99.90
50556;DHT22;36508;52.512;13.450;2023-05-17T06:35:31;9.80;99.90
50556;DHT22;36508;52.512;13.450;2023-05-17T06:37:56;9.90;99.90
50556;DHT22;36508;52.512;13.450;2023-05-17T06:40:22;10.00;99.90
50556;DHT22;36508;52.512;13.450;2023-05-17T06:42:47;10.00;99.90
50556;DHT22;36508;52.512;13.450;2023-05-17T06:45:13;9.90;99.90
50556;DHT22;36508;52.512;13.450;2023-05-17T06:47:39;9.60;99.90
50556;DHT22;36508;52.512;13.450;2023-05-17T06:50:05;9.50;99.90
50556;DHT22;36508;52.512;13.450;2023-05-17T06:52:33;9.50;99.90
50556;DHT22;36508;52.512;13.450;2023-05-17T06:54:59;9.60;99.90
50556;DHT22;36508;52.512;13.450;2023-05-17T06:57:24;9.90;99.90
50556;DHT22;36508;52.512;13.450;2023-05-17T06:59:50;10.00;99.90
50556;DHT22;36508;52.512;13.450;2023-05-17T07:02:16;10.20;99.90
50556;DHT22;36508;52.512;13.450;2023-05-17T07:04:42;10.30;99.90
50556;DHT22;36508;52.512;13.450;2023-05-17T07:07:08;10.10;99.90
50556;DHT22;36508;52.512;13.450;2023-05-17T07:09:33;9.90;99.90
50556;DHT22;36508;52.512;13.450;2023-05-17T07:11:59;9.90;99.90
50556;DHT22;36508;52.512;13.450;2023-05-17T07:14:24;10.00;99.90
50556;DHT22;36508;52.512;13.450;2023-05-17T07:16:50;9.90;99.90
50556;DHT22;36508;52.512;13.450;2023-05-17T07:19:16;9.80;99.90
50556;DHT22;36508;52.512;13.450;2023-05-17T07:21:41;9.90;99.90
50556;DHT22;36508;52.512;13.450;2023-05-17T07:24:07;10.10;99.90
50556;DHT22;36508;52.512;13.450;2023-05-17T07:26:34;10.10;99.90
50556;DHT22;36508;52.512;13.450;2023-05-17T07:28:59;10.20;99.90
50556;DHT22;36508;52.512;13.450;2023-05-17T07:31:25;10.30;99.90
50556;DHT22;36508;52.512;13.450;2023-05-17T07:33:51;10.40;99.90
50556;DHT22;36508;52.512;13.450;2023-05-17T07:36:16;10.60;99.90
50556;DHT22;36508;52.512;13.450;2023-05-17T07:38:42;10.60;99.90
50556;DHT22;36508;52.512;13.450;2023-05-17T07:41:08;10.70;99.90
50556;DHT22;36508;52.512;13.450;2023-05-17T07:43:35;11.00;99.90
50556;DHT22;36508;52.512;13.450;2023-05-17T07:46:04;11.30;99.90
50556;DHT22;36508;52.512;13.450;2023-05-17T07:48:30;11.10;99.90
50556;DHT22;36508;52.512;13.450;2023-05-17T07:50:56;11.00;99.90
50556;DHT22;36508;52.512;13.450;2023-05-17T07:53:21;10.70;99.90
50556;DHT22;36508;52.512;13.450;2023-05-17T07:55:47;10.70;99.90
50556;DHT22;36508;52.512;13.450;2023-05-17T07:58:14;10.70;99.90
50556;DHT22;36508;52.512;13.450;2023-05-17T08:00:40;10.80;99.90
50556;DHT22;36508;52.512;13.450;2023-05-17T08:03:06;10.60;99.90
50556;DHT22;36508;52.512;13.450;2023-05-17T08:05:33;10.60;99.90
50556;DHT22;36508;52.512;13.450;2023-05-17T08:07:58;10.60;99.90
50556;DHT22;36508;52.512;13.450;2023-05-17T08:10:25;10.70;99.90
50556;DHT22;36508;52.512;13.450;2023-05-17T08:12:52;10.70;99.90
50556;DHT22;36508;52.512;13.450;2023-05-17T08:15:17;10.70;99.90
50556;DHT22;36508;52.512;13.450;2023-05-17T08:17:43;10.70;99.90
50556;DHT22;36508;52.512;13.450;2023-05-17T08:20:09;10.80;99.90
50556;DHT22;36508;52.512;13.450;2023-05-17T08:22:35;10.80;99.90
50556;DHT22;36508;52.512;13.450;2023-05-17T08:25:01;10.90;99.90
50556;DHT22;36508;52.512;13.450;2023-05-17T08:27:27;10.90;99.90
50556;DHT22;36508;52.512;13.450;2023-05-17T08:29:55;11.10;99.90
50556;DHT22;36508;52.512;13.450;2023-05-17T08:32:22;11.20;99.90
50556;DHT22;36508;52.512;13.450;2023-05-17T08:34:48;11.40;99.90
50556;DHT22;36508;52.512;13.450;2023-05-17T08:37:13;11.40;99.90
50556;DHT22;36508;52.512;13.450;2023-05-17T08:39:39;11.40;99.90
50556;DHT22;36508;52.512;13.450;2023-05-17T08:42:07;11.40;99.90
50556;DHT22;36508;52.512;13.450;2023-05-17T08:44:33;11.60;99.90
50556;DHT22;36508;52.512;13.450;2023-05-17T08:46:59;11.70;99.90
50556;DHT22;36508;52.512;13.450;2023-05-17T08:49:27;11.50;99.90
50556;DHT22;36508;52.512;13.450;2023-05-17T08:51:56;11.50;99.90
50556;DHT22;36508;52.512;13.450;2023-05-17T08:54:23;11.50;99.90
50556;DHT22;36508;52.512;13.450;2023-05-17T08:56:56;11.60;99.90
50556;DHT22;36508;52.512;13.450;2023-05-17T08:59:25;11.60;99.90
50556;DHT22;36508;52.512;13.450;2023-05-17T09:01:52;11.70;99.90
50556;DHT22;36508;52.512;13.450;2023-05-17T09:04:19;11.70;99.90
50556;DHT22;36508;52.512;13.450;2023-05-17T09:06:45;11.70;99.90
50556;DHT22;36508;52.512;13.450;2023-05-17T09:09:11;11.70;99.90
50556;DHT22;36508;52.512;13.450;2023-05-17T09:11:38;11.60;99.90
50556;DHT22;36508;52.512;13.450;2023-05-17T09:14:05;11.70;99.90
50556;DHT22;36508;52.512;13.450;2023-05-17T09:16:33;11.80;99.90
50556;DHT22;36508;52.512;13.450;2023-05-17T09:19:00;12.00;99.90
50556;DHT22;36508;52.512;13.450;2023-05-17T09:21:27;12.00;99.90
50556;DHT22;36508;52.512;13.450;2023-05-17T09:23:53;12.00;99.90
50556;DHT22;36508;52.512;13.450;2023-05-17T09:26:20;12.10;99.90
50556;DHT22;36508;52.512;13.450;2023-05-17T09:28:51;12.00;99.90
50556;DHT22;36508;52.512;13.450;2023-05-17T09:31:18;11.90;99.90
50556;DHT22;36508;52.512;13.450;2023-05-17T09:33:50;12.10;99.90
50556;DHT22;36508;52.512;13.450;2023-05-17T09:36:22;12.10;99.90
50556;DHT22;36508;52.512;13.450;2023-05-17T09:39:00;12.20;99.90
50556;DHT22;36508;52.512;13.450;2023-05-17T09:41:43;12.40;99.90
50556;DHT22;36508;52.512;13.450;2023-05-17T09:44:10;12.60;99.90
50556;DHT22;36508;52.512;13.450;2023-05-17T09:46:40;12.70;99.90
50556;DHT22;36508;52.512;13.450;2023-05-17T09:49:06;12.50;99.90
50556;DHT22;36508;52.512;13.450;2023-05-17T09:51:41;12.50;99.90
50556;DHT22;36508;52.512;13.450;2023-05-17T09:54:07;12.70;99.90
50556;DHT22;36508;52.512;13.450;2023-05-17T09:56:33;12.80;99.90
50556;DHT22;36508;52.512;13.450;2023-05-17T09:59:13;12.90;99.90
50556;DHT22;36508;52.512;13.450;2023-05-17T10:01:43;12.80;99.90
50556;DHT22;36508;52.512;13.450;2023-05-17T10:04:10;13.10;99.90
50556;DHT22;36508;52.512;13.450;2023-05-17T10:06:40;13.30;99.90
50556;DHT22;36508;52.512;13.450;2023-05-17T10:09:10;12.70;99.90
50556;DHT22;36508;52.512;13.450;2023-05-17T10:11:38;12.50;99.90
50556;DHT22;36508;52.512;13.450;2023-05-17T10:14:10;12.60;99.90
50556;DHT22;36508;52.512;13.450;2023-05-17T10:16:37;12.60;99.90
50556;DHT22;36508;52.512;13.450;2023-05-17T10:19:04;12.70;99.90
50556;DHT22;36508;52.512;13.450;2023-05-17T10:21:30;12.80;99.90
50556;DHT22;36508;52.512;13.450;2023-05-17T10:23:59;12.80;99.90
50556;DHT22;36508;52.512;13.450;2023-05-17T10:26:26;12.90;99.90
50556;DHT22;36508;52.512;13.450;2023-05-17T10:28:56;12.90;99.90
50556;DHT22;36508;52.512;13.450;2023-05-17T10:31:26;13.10;99.90
50556;DHT22;36508;52.512;13.450;2023-05-17T10:33:53;13.40;99.90
50556;DHT22;36508;52.512;13.450;2023-05-17T10:36:20;14.40;99.90
50556;DHT22;36508;52.512;13.450;2023-05-17T10:38:48;16.40;99.90
50556;DHT22;36508;52.512;13.450;2023-05-17T10:41:14;17.60;99.90
50556;DHT22;36508;52.512;13.450;2023-05-17T10:43:42;19.00;96.80
50556;DHT22;36508;52.512;13.450;2023-05-17T10:46:15;20.70;94.70
50556;DHT22;36508;52.512;13.450;2023-05-17T10:48:42;22.60;87.70
50556;DHT22;36508;52.512;13.450;2023-05-17T10:51:07;23.30;83.80
50556;DHT22;36508;52.512;13.450;2023-05-17T10:56:30;22.40;76.40
50556;DHT22;36508;52.512;13.450;2023-05-17T10:59:35;22.90;72.50
50556;DHT22;36508;52.512;13.450;2023-05-17T11:02:05;22.00;71.50
50556;DHT22;36508;52.512;13.450;2023-05-17T11:04:34;22.00;72.40
50556;DHT22;36508;52.512;13.450;2023-05-17T11:09:45;22.20;71.20
50556;DHT22;36508;52.512;13.450;2023-05-17T11:12:14;22.60;68.90
50556;DHT22;36508;52.512;13.450;2023-05-17T11:14:52;21.40;66.90
50556;DHT22;36508;52.512;13.450;2023-05-17T11:17:24;22.20;68.90
50556;DHT22;36508;52.512;13.450;2023-05-17T11:22:26;23.00;64.70
50556;DHT22;36508;52.512;13.450;2023-05-17T11:24:56;23.90;64.50
50556;DHT22;36508;52.512;13.450;2023-05-17T11:27:22;24.80;62.00
50556;DHT22;36508;52.512;13.450;2023-05-17T11:29:55;24.20;62.70
50556;DHT22;36508;52.512;13.450;2023-05-17T11:32:31;23.70;62.20
50556;DHT22;36508;52.512;13.450;2023-05-17T11:35:00;22.00;61.90
50556;DHT22;36508;52.512;13.450;2023-05-17T11:37:27;21.20;63.90
50556;DHT22;36508;52.512;13.450;2023-05-17T11:40:06;20.90;65.60
50556;DHT22;36508;52.512;13.450;2023-05-17T11:42:33;21.50;66.40
50556;DHT22;36508;52.512;13.450;2023-05-17T11:45:02;21.70;65.40
50556;DHT22;36508;52.512;13.450;2023-05-17T11:47:28;21.20;65.20
50556;DHT22;36508;52.512;13.450;2023-05-17T11:50:00;20.50;65.90
50556;DHT22;36508;52.512;13.450;2023-05-17T11:52:27;19.40;67.00
50556;DHT22;36508;52.512;13.450;2023-05-17T11:54:53;19.00;69.00
50556;DHT22;36508;52.512;13.450;2023-05-17T11:57:19;18.10;67.20
50556;DHT22;36508;52.512;13.450;2023-05-17T11:59:47;17.80;69.90
50556;DHT22;36508;52.512;13.450;2023-05-17T12:02:33;18.10;70.00
50556;DHT22;36508;52.512;13.450;2023-05-17T12:04:58;17.80;69.50
50556;DHT22;36508;52.512;13.450;2023-05-17T12:07:24;18.10;72.40
50556;DHT22;36508;52.512;13.450;2023-05-17T12:09:50;17.70;70.90
50556;DHT22;36508;52.512;13.450;2023-05-17T12:12:17;17.00;71.00
50556;DHT22;36508;52.512;13.450;2023-05-17T12:14:43;16.60;71.70
50556;DHT22;36508;52.512;13.450;2023-05-17T12:17:12;17.00;73.40
50556;DHT22;36508;52.512;13.450;2023-05-17T12:19:42;17.10;73.80
50556;DHT22;36508;52.512;13.450;2023-05-17T12:22:09;17.10;72.30
50556;DHT22;36508;52.512;13.450;2023-05-17T12:24:39;16.80;73.70
50556;DHT22;36508;52.512;13.450;2023-05-17T12:27:05;16.70;73.60
50556;DHT22;36508;52.512;13.450;2023-05-17T12:29:31;16.30;74.60
50556;DHT22;36508;52.512;13.450;2023-05-17T12:31:58;15.60;73.80
50556;DHT22;36508;52.512;13.450;2023-05-17T12:34:24;15.20;72.90
50556;DHT22;36508;52.512;13.450;2023-05-17T12:36:52;15.50;75.20
50556;DHT22;36508;52.512;13.450;2023-05-17T12:39:18;15.90;72.50
50556;DHT22;36508;52.512;13.450;2023-05-17T12:41:48;15.90;72.40
50556;DHT22;36508;52.512;13.450;2023-05-17T12:44:16;16.00;73.30
50556;DHT22;36508;52.512;13.450;2023-05-17T12:46:43;16.10;72.90
50556;DHT22;36508;52.512;13.450;2023-05-17T12:49:09;16.00;73.10
50556;DHT22;36508;52.512;13.450;2023-05-17T12:51:43;16.10;74.40
50556;DHT22;36508;52.512;13.450;2023-05-17T12:54:10;16.00;74.40
50556;DHT22;36508;52.512;13.450;2023-05-17T12:56:36;16.20;74.60
50556;DHT22;36508;52.512;13.450;2023-05-17T13:01:44;16.70;75.80
50556;DHT22;36508;52.512;13.450;2023-05-17T13:04:14;16.80;74.00
50556;DHT22;36508;52.512;13.450;2023-05-17T13:09:14;16.60;73.60
50556;DHT22;36508;52.512;13.450;2023-05-17T13:11:49;16.30;72.80
50556;DHT22;36508;52.512;13.450;2023-05-17T13:17:08;15.90;73.50
50556;DHT22;36508;52.512;13.450;2023-05-17T13:19:34;16.10;73.60
50556;DHT22;36508;52.512;13.450;2023-05-17T13:22:01;16.40;73.30
50556;DHT22;36508;52.512;13.450;2023-05-17T13:24:26;16.60;73.40
50556;DHT22;36508;52.512;13.450;2023-05-17T13:26:53;16.60;73.50
50556;DHT22;36508;52.512;13.450;2023-05-17T13:29:18;16.40;73.30
50556;DHT22;36508;52.512;13.450;2023-05-17T13:31:44;16.50;74.30
50556;DHT22;36508;52.512;13.450;2023-05-17T13:34:11;16.90;73.20
50556;DHT22;36508;52.512;13.450;2023-05-17T13:36:37;17.10;73.50
50556;DHT22;36508;52.512;13.450;2023-05-17T13:39:02;17.30;73.60
50556;DHT22;36508;52.512;13.450;2023-05-17T13:41:29;17.70;73.00
50556;DHT22;36508;52.512;13.450;2023-05-17T13:43:54;17.70;73.40
50556;DHT22;36508;52.512;13.450;2023-05-17T13:46:21;17.40;73.40
50556;DHT22;36508;52.512;13.450;2023-05-17T13:48:47;17.50;74.70
50556;DHT22;36508;52.512;13.450;2023-05-17T13:51:13;17.30;74.10
50556;DHT22;36508;52.512;13.450;2023-05-17T13:53:38;17.30;75.80
50556;DHT22;36508;52.512;13.450;2023-05-17T13:56:06;17.50;74.70
50556;DHT22;36508;52.512;13.450;2023-05-17T13:58:32;17.50;74.30
50556;DHT22;36508;52.512;13.450;2023-05-17T14:00:58;17.60;74.60
50556;DHT22;36508;52.512;13.450;2023-05-17T14:03:24;17.70;75.10
50556;DHT22;36508;52.512;13.450;2023-05-17T14:05:49;17.50;75.90
50556;DHT22;36508;52.512;13.450;2023-05-17T14:08:17;17.60;76.90
50556;DHT22;36508;52.512;13.450;2023-05-17T14:10:43;17.80;77.70
50556;DHT22;36508;52.512;13.450;2023-05-17T14:13:09;17.40;75.90
50556;DHT22;36508;52.512;13.450;2023-05-17T14:15:37;17.00;76.70
50556;DHT22;36508;52.512;13.450;2023-05-17T14:18:05;17.10;76.90
50556;DHT22;36508;52.512;13.450;2023-05-17T14:20:31;17.10;77.20
50556;DHT22;36508;52.512;13.450;2023-05-17T14:22:57;17.20;77.40
50556;DHT22;36508;52.512;13.450;2023-05-17T14:25:22;16.90;77.80
50556;DHT22;36508;52.512;13.450;2023-05-17T14:27:48;17.10;78.00
50556;DHT22;36508;52.512;13.450;2023-05-17T14:30:14;17.30;77.30
50556;DHT22;36508;52.512;13.450;2023-05-17T14:32:40;17.00;76.70
50556;DHT22;36508;52.512;13.450;2023-05-17T14:35:07;16.80;77.20
50556;DHT22;36508;52.512;13.450;2023-05-17T14:37:33;16.70;77.10
50556;DHT22;36508;52.512;13.450;2023-05-17T14:39:59;17.00;78.00
50556;DHT22;36508;52.512;13.450;2023-05-17T14:42:25;17.10;76.80
50556;DHT22;36508;52.512;13.450;2023-05-17T14:44:51;17.10;76.50
50556;DHT22;36508;52.512;13.450;2023-05-17T14:47:17;16.60;77.30
50556;DHT22;36508;52.512;13.450;2023-05-17T14:49:42;16.60;77.90
50556;DHT22;36508;52.512;13.450;2023-05-17T14:52:08;16.80;78.10
50556;DHT22;36508;52.512;13.450;2023-05-17T14:54:34;17.10;78.00
50556;DHT22;36508;52.512;13.450;2023-05-17T14:57:04;17.30;76.80
50556;DHT22;36508;52.512;13.450;2023-05-17T14:59:38;17.40;76.60
50556;DHT22;36508;52.512;13.450;2023-05-17T15:02:06;17.60;76.90
50556;DHT22;36508;52.512;13.450;2023-05-17T15:04:35;17.80;76.40
50556;DHT22;36508;52.512;13.450;2023-05-17T15:07:01;17.60;76.00
50556;DHT22;36508;52.512;13.450;2023-05-17T15:09:27;17.20;76.40
50556;DHT22;36508;52.512;13.450;2023-05-17T15:11:55;16.90;77.10
50556;DHT22;36508;52.512;13.450;2023-05-17T15:14:20;16.80;77.90
50556;DHT22;36508;52.512;13.450;2023-05-17T15:16:48;16.90;77.60
50556;DHT22;36508;52.512;13.450;2023-05-17T15:19:14;17.10;77.50
50556;DHT22;36508;52.512;13.450;2023-05-17T15:21:41;17.20;77.20
50556;DHT22;36508;52.512;13.450;2023-05-17T15:24:07;17.40;77.50
50556;DHT22;36508;52.512;13.450;2023-05-17T15:26:34;17.30;75.90
50556;DHT22;36508;52.512;13.450;2023-05-17T15:29:00;17.30;75.90
50556;DHT22;36508;52.512;13.450;2023-05-17T15:31:26;17.30;76.20
50556;DHT22;36508;52.512;13.450;2023-05-17T15:33:56;17.80;76.70
50556;DHT22;36508;52.512;13.450;2023-05-17T15:36:23;18.50;74.50
50556;DHT22;36508;52.512;13.450;2023-05-17T15:38:49;18.60;74.70
50556;DHT22;36508;52.512;13.450;2023-05-17T15:41:16;18.40;74.10
50556;DHT22;36508;52.512;13.450;2023-05-17T15:43:43;18.30;75.40
50556;DHT22;36508;52.512;13.450;2023-05-17T15:46:09;18.60;75.50